sensor_id;sensor_type;location;lat;lon;timestamp;P1;durP1;ratioP1;P2;durP2;ratioP2
20449;SDS011;10384;51.940;8.432;2023-08-20T00:00:26;24.77;;;13.03;;
20449;SDS011;10384;51.940;8.432;2023-08-20T00:03:00;22.57;;;12.00;;
20449;SDS011;10384;51.940;8.432;2023-08-20T00:05:35;19.97;;;10.40;;
20449;SDS011;10384;51.940;8.432;2023-08-20T00:08:01;20.17;;;10.07;;
20449;SDS011;10384;51.940;8.432;2023-08-20T00:10:27;19.63;;;9.43;;
20449;SDS011;10384;51.940;8.432;2023-08-20T00:12:53;18.77;;;10.13;;
20449;SDS011;10384;51.940;8.432;2023-08-20T00:15:18;17.53;;;9.27;;
20449;SDS011;10384;51.940;8.432;2023-08-20T00:17:45;19.73;;;9.80;;
20449;SDS011;10384;51.940;8.432;2023-08-20T00:20:11;18.70;;;8.73;;
20449;SDS011;10384;51.940;8.432;2023-08-20T00:22:39;19.03;;;8.53;;
20449;SDS011;10384;51.940;8.432;2023-08-20T00:25:07;19.53;;;8.93;;
20449;SDS011;10384;51.940;8.432;2023-08-20T00:27:33;19.93;;;9.13;;
20449;SDS011;10384;51.940;8.432;2023-08-20T00:29:58;16.23;;;8.93;;
20449;SDS011;10384;51.940;8.432;2023-08-20T00:32:24;21.00;;;9.30;;
20449;SDS011;10384;51.940;8.432;2023-08-20T00:34:50;17.20;;;8.53;;
20449;SDS011;10384;51.940;8.432;2023-08-20T00:37:15;17.23;;;8.63;;
20449;SDS011;10384;51.940;8.432;2023-08-20T00:39:41;16.27;;;8.63;;
20449;SDS011;10384;51.940;8.432;2023-08-20T00:42:07;17.30;;;8.53;;
20449;SDS011;10384;51.940;8.432;2023-08-20T00:44:33;16.60;;;7.50;;
20449;SDS011;10384;51.940;8.432;2023-08-20T00:47:00;12.40;;;6.43;;
20449;SDS011;10384;51.940;8.432;2023-08-20T00:49:26;11.17;;;6.20;;
20449;SDS011;10384;51.940;8.432;2023-08-20T00:51:52;11.40;;;5.10;;
20449;SDS011;10384;51.940;8.432;2023-08-20T00:54:19;9.00;;;5.17;;
20449;SDS011;10384;51.940;8.432;2023-08-20T00:56:46;11.23;;;4.47;;
20449;SDS011;10384;51.940;8.432;2023-08-20T00:59:14;8.63;;;3.83;;
20449;SDS011;10384;51.940;8.432;2023-08-20T01:01:40;12.57;;;4.13;;
20449;SDS011;10384;51.940;8.432;2023-08-20T01:04:06;7.97;;;4.67;;
20449;SDS011;10384;51.940;8.432;2023-08-20T01:06:39;9.53;;;3.37;;
20449;SDS011;10384;51.940;8.432;2023-08-20T01:09:48;9.13;;;3.77;;
20449;SDS011;10384;51.940;8.432;2023-08-20T01:12:21;7.20;;;3.47;;
20449;SDS011;10384;51.940;8.432;2023-08-20T01:14:48;6.33;;;2.90;;
20449;SDS011;10384;51.940;8.432;2023-08-20T01:17:13;8.07;;;3.00;;
20449;SDS011;10384;51.940;8.432;2023-08-20T01:19:39;8.37;;;4.50;;
20449;SDS011;10384;51.940;8.432;2023-08-20T01:22:51;7.10;;;3.00;;
20449;SDS011;10384;51.940;8.432;2023-08-20T01:27:35;5.80;;;2.80;;
20449;SDS011;10384;51.940;8.432;2023-08-20T01:30:06;5.40;;;3.07;;
20449;SDS011;10384;51.940;8.432;2023-08-20T01:32:33;5.97;;;3.07;;
20449;SDS011;10384;51.940;8.432;2023-08-20T01:35:00;8.73;;;3.80;;
20449;SDS011;10384;51.940;8.432;2023-08-20T01:37:25;7.07;;;2.90;;
20449;SDS011;10384;51.940;8.432;2023-08-20T01:39:51;5.27;;;3.20;;
20449;SDS011;10384;51.940;8.432;2023-08-20T01:42:17;7.60;;;3.13;;
20449;SDS011;10384;51.940;8.432;2023-08-20T01:44:43;7.60;;;3.43;;
20449;SDS011;10384;51.940;8.432;2023-08-20T01:47:08;6.33;;;3.40;;
20449;SDS011;10384;51.940;8.432;2023-08-20T01:49:34;6.80;;;3.33;;
20449;SDS011;10384;51.940;8.432;2023-08-20T01:51:59;7.17;;;2.67;;
20449;SDS011;10384;51.940;8.432;2023-08-20T01:54:25;7.70;;;3.10;;
20449;SDS011;10384;51.940;8.432;2023-08-20T01:56:51;4.70;;;2.77;;
20449;SDS011;10384;51.940;8.432;2023-08-20T01:59:16;7.73;;;4.70;;
20449;SDS011;10384;51.940;8.432;2023-08-20T02:01:43;7.83;;;2.90;;
20449;SDS011;10384;51.940;8.432;2023-08-20T02:04:09;6.10;;;3.40;;
20449;SDS011;10384;51.940;8.432;2023-08-20T02:06:34;5.93;;;3.00;;
20449;SDS011;10384;51.940;8.432;2023-08-20T02:09:00;4.67;;;2.57;;
20449;SDS011;10384;51.940;8.432;2023-08-20T02:11:25;6.73;;;3.27;;
20449;SDS011;10384;51.940;8.432;2023-08-20T02:13:51;5.30;;;3.00;;
20449;SDS011;10384;51.940;8.432;2023-08-20T02:16:17;8.80;;;3.10;;
20449;SDS011;10384;51.940;8.432;2023-08-20T02:18:42;8.10;;;3.23;;
20449;SDS011;10384;51.940;8.432;2023-08-20T02:21:08;5.80;;;3.17;;
20449;SDS011;10384;51.940;8.432;2023-08-20T02:23:33;6.67;;;3.10;;
20449;SDS011;10384;51.940;8.432;2023-08-20T02:25:59;5.87;;;2.60;;
20449;SDS011;10384;51.940;8.432;2023-08-20T02:28:25;6.73;;;3.33;;
20449;SDS011;10384;51.940;8.432;2023-08-20T02:30:51;5.03;;;2.70;;
20449;SDS011;10384;51.940;8.432;2023-08-20T02:33:17;6.20;;;2.70;;
20449;SDS011;10384;51.940;8.432;2023-08-20T02:35:42;9.10;;;3.00;;
20449;SDS011;10384;51.940;8.432;2023-08-20T02:38:08;6.27;;;3.00;;
20449;SDS011;10384;51.940;8.432;2023-08-20T02:40:40;7.17;;;3.10;;
20449;SDS011;10384;51.940;8.432;2023-08-20T02:43:08;7.63;;;3.30;;
20449;SDS011;10384;51.940;8.432;2023-08-20T02:45:39;7.50;;;3.37;;
20449;SDS011;10384;51.940;8.432;2023-08-20T02:48:08;4.83;;;3.00;;
20449;SDS011;10384;51.940;8.432;2023-08-20T02:50:34;7.20;;;3.37;;
20449;SDS011;10384;51.940;8.432;2023-08-20T02:53:00;8.00;;;4.07;;
20449;SDS011;10384;51.940;8.432;2023-08-20T02:55:26;9.33;;;3.70;;
20449;SDS011;10384;51.940;8.432;2023-08-20T02:57:51;7.87;;;3.70;;
20449;SDS011;10384;51.940;8.432;2023-08-20T03:00:17;11.53;;;3.77;;
20449;SDS011;10384;51.940;8.432;2023-08-20T03:02:42;7.13;;;3.67;;
20449;SDS011;10384;51.940;8.432;2023-08-20T03:05:09;9.17;;;3.97;;
20449;SDS011;10384;51.940;8.432;2023-08-20T03:07:35;9.07;;;3.40;;
20449;SDS011;10384;51.940;8.432;2023-08-20T03:10:01;7.07;;;3.13;;
20449;SDS011;10384;51.940;8.432;2023-08-20T03:12:27;11.73;;;3.77;;
20449;SDS011;10384;51.940;8.432;2023-08-20T03:14:54;10.07;;;4.00;;
20449;SDS011;10384;51.940;8.432;2023-08-20T03:17:20;10.67;;;4.03;;
20449;SDS011;10384;51.940;8.432;2023-08-20T03:19:55;9.67;;;3.97;;
20449;SDS011;10384;51.940;8.432;2023-08-20T03:22:22;9.37;;;4.10;;
20449;SDS011;10384;51.940;8.432;2023-08-20T03:24:48;7.60;;;3.60;;
20449;SDS011;10384;51.940;8.432;2023-08-20T03:27:15;8.63;;;3.77;;
20449;SDS011;10384;51.940;8.432;2023-08-20T03:29:41;6.83;;;3.80;;
20449;SDS011;10384;51.940;8.432;2023-08-20T03:32:06;9.43;;;4.60;;
20449;SDS011;10384;51.940;8.432;2023-08-20T03:34:32;13.10;;;4.10;;
20449;SDS011;10384;51.940;8.432;2023-08-20T03:36:57;10.40;;;4.70;;
20449;SDS011;10384;51.940;8.432;2023-08-20T03:39:23;9.97;;;4.20;;
20449;SDS011;10384;51.940;8.432;2023-08-20T03:41:49;11.10;;;5.10;;
20449;SDS011;10384;51.940;8.432;2023-08-20T03:44:15;9.10;;;4.60;;
20449;SDS011;10384;51.940;8.432;2023-08-20T03:46:41;8.23;;;3.97;;
20449;SDS011;10384;51.940;8.432;2023-08-20T03:49:06;7.97;;;4.10;;
20449;SDS011;10384;51.940;8.432;2023-08-20T03:51:32;10.67;;;5.20;;
20449;SDS011;10384;51.940;8.432;2023-08-20T03:53:57;8.97;;;4.80;;
20449;SDS011;10384;51.940;8.432;2023-08-20T03:56:23;11.60;;;5.47;;
20449;SDS011;10384;51.940;8.432;2023-08-20T03:58:48;11.67;;;5.80;;
20449;SDS011;10384;51.940;8.432;2023-08-20T04:01:14;10.47;;;5.10;;
20449;SDS011;10384;51.940;8.432;2023-08-20T04:03:40;9.23;;;4.93;;
20449;SDS011;10384;51.940;8.432;2023-08-20T04:06:05;11.33;;;4.90;;
20449;SDS011;10384;51.940;8.432;2023-08-20T04:08:32;9.43;;;5.10;;
20449;SDS011;10384;51.940;8.432;2023-08-20T04:10:57;14.40;;;5.37;;
20449;SDS011;10384;51.940;8.432;2023-08-20T04:13:23;9.63;;;4.13;;
20449;SDS011;10384;51.940;8.432;2023-08-20T04:15:49;12.23;;;5.63;;
20449;SDS011;10384;51.940;8.432;2023-08-20T04:18:14;7.27;;;4.40;;
20449;SDS011;10384;51.940;8.432;2023-08-20T04:20:40;9.37;;;5.53;;
20449;SDS011;10384;51.940;8.432;2023-08-20T04:23:05;10.53;;;4.90;;
20449;SDS011;10384;51.940;8.432;2023-08-20T04:25:31;6.70;;;4.17;;
20449;SDS011;10384;51.940;8.432;2023-08-20T04:27:56;10.20;;;3.90;;
20449;SDS011;10384;51.940;8.432;2023-08-20T04:30:22;7.67;;;4.50;;
20449;SDS011;10384;51.940;8.432;2023-08-20T04:32:47;9.77;;;3.83;;
20449;SDS011;10384;51.940;8.432;2023-08-20T04:35:13;8.93;;;3.83;;
20449;SDS011;10384;51.940;8.432;2023-08-20T04:37:39;9.30;;;4.10;;
20449;SDS011;10384;51.940;8.432;2023-08-20T04:40:04;9.40;;;3.73;;
20449;SDS011;10384;51.940;8.432;2023-08-20T04:42:31;6.67;;;3.83;;
20449;SDS011;10384;51.940;8.432;2023-08-20T04:44:57;8.30;;;3.70;;
20449;SDS011;10384;51.940;8.432;2023-08-20T04:47:22;6.60;;;3.50;;
20449;SDS011;10384;51.940;8.432;2023-08-20T04:49:48;8.27;;;3.73;;
20449;SDS011;10384;51.940;8.432;2023-08-20T04:52:13;7.53;;;3.30;;
20449;SDS011;10384;51.940;8.432;2023-08-20T04:54:39;7.60;;;3.87;;
20449;SDS011;10384;51.940;8.432;2023-08-20T04:57:05;8.20;;;4.00;;
20449;SDS011;10384;51.940;8.432;2023-08-20T04:59:30;8.93;;;3.80;;
20449;SDS011;10384;51.940;8.432;2023-08-20T05:01:56;9.87;;;3.80;;
20449;SDS011;10384;51.940;8.432;2023-08-20T05:04:22;8.97;;;4.43;;
20449;SDS011;10384;51.940;8.432;2023-08-20T05:06:47;12.43;;;4.53;;
20449;SDS011;10384;51.940;8.432;2023-08-20T05:09:13;7.53;;;3.93;;
20449;SDS011;10384;51.940;8.432;2023-08-20T05:11:40;7.73;;;3.90;;
20449;SDS011;10384;51.940;8.432;2023-08-20T05:14:06;6.63;;;3.57;;
20449;SDS011;10384;51.940;8.432;2023-08-20T05:16:31;6.20;;;4.03;;
20449;SDS011;10384;51.940;8.432;2023-08-20T05:18:57;10.43;;;3.63;;
20449;SDS011;10384;51.940;8.432;2023-08-20T05:21:22;7.80;;;3.93;;
20449;SDS011;10384;51.940;8.432;2023-08-20T05:23:48;7.87;;;3.63;;
20449;SDS011;10384;51.940;8.432;2023-08-20T05:26:13;6.47;;;3.57;;
20449;SDS011;10384;51.940;8.432;2023-08-20T05:28:39;6.80;;;3.60;;
20449;SDS011;10384;51.940;8.432;2023-08-20T05:31:05;6.87;;;3.73;;
20449;SDS011;10384;51.940;8.432;2023-08-20T05:33:30;8.60;;;3.57;;
20449;SDS011;10384;51.940;8.432;2023-08-20T05:35:56;4.40;;;2.97;;
20449;SDS011;10384;51.940;8.432;2023-08-20T05:38:21;6.03;;;3.77;;
20449;SDS011;10384;51.940;8.432;2023-08-20T05:40:47;7.17;;;3.23;;
20449;SDS011;10384;51.940;8.432;2023-08-20T05:43:12;5.67;;;3.13;;
20449;SDS011;10384;51.940;8.432;2023-08-20T05:45:38;5.87;;;3.30;;
20449;SDS011;10384;51.940;8.432;2023-08-20T05:48:04;6.87;;;3.50;;
20449;SDS011;10384;51.940;8.432;2023-08-20T05:50:29;7.33;;;3.33;;
20449;SDS011;10384;51.940;8.432;2023-08-20T05:52:55;5.40;;;3.37;;
20449;SDS011;10384;51.940;8.432;2023-08-20T05:55:20;7.30;;;3.60;;
20449;SDS011;10384;51.940;8.432;2023-08-20T05:57:46;5.23;;;2.63;;
20449;SDS011;10384;51.940;8.432;2023-08-20T06:00:11;13.03;;;3.60;;
20449;SDS011;10384;51.940;8.432;2023-08-20T06:02:37;4.53;;;2.83;;
20449;SDS011;10384;51.940;8.432;2023-08-20T06:05:03;10.70;;;3.10;;
20449;SDS011;10384;51.940;8.432;2023-08-20T06:07:33;5.47;;;2.90;;
20449;SDS011;10384;51.940;8.432;2023-08-20T06:09:58;7.63;;;3.13;;
20449;SDS011;10384;51.940;8.432;2023-08-20T06:12:24;6.47;;;2.77;;
20449;SDS011;10384;51.940;8.432;2023-08-20T06:14:49;5.83;;;2.40;;
20449;SDS011;10384;51.940;8.432;2023-08-20T06:17:15;7.00;;;3.30;;
20449;SDS011;10384;51.940;8.432;2023-08-20T06:19:41;5.30;;;2.80;;
20449;SDS011;10384;51.940;8.432;2023-08-20T06:22:06;4.93;;;2.70;;
20449;SDS011;10384;51.940;8.432;2023-08-20T06:24:32;5.83;;;2.83;;
20449;SDS011;10384;51.940;8.432;2023-08-20T06:26:58;5.67;;;2.57;;
20449;SDS011;10384;51.940;8.432;2023-08-20T06:29:23;7.37;;;2.83;;
20449;SDS011;10384;51.940;8.432;2023-08-20T06:31:49;6.47;;;2.90;;
20449;SDS011;10384;51.940;8.432;2023-08-20T06:34:15;5.03;;;3.17;;
20449;SDS011;10384;51.940;8.432;2023-08-20T06:36:41;6.07;;;3.00;;
20449;SDS011;10384;51.940;8.432;2023-08-20T06:39:06;6.70;;;3.40;;
20449;SDS011;10384;51.940;8.432;2023-08-20T06:41:32;5.17;;;3.20;;
20449;SDS011;10384;51.940;8.432;2023-08-20T06:43:58;8.90;;;3.50;;
20449;SDS011;10384;51.940;8.432;2023-08-20T06:46:24;5.70;;;3.40;;
20449;SDS011;10384;51.940;8.432;2023-08-20T06:48:49;8.00;;;3.67;;
20449;SDS011;10384;51.940;8.432;2023-08-20T06:51:15;8.83;;;5.03;;
20449;SDS011;10384;51.940;8.432;2023-08-20T06:53:44;8.03;;;4.27;;
20449;SDS011;10384;51.940;8.432;2023-08-20T06:56:10;6.63;;;3.93;;
20449;SDS011;10384;51.940;8.432;2023-08-20T06:58:37;11.53;;;5.47;;
20449;SDS011;10384;51.940;8.432;2023-08-20T07:01:04;7.37;;;4.07;;
20449;SDS011;10384;51.940;8.432;2023-08-20T07:03:33;9.50;;;4.30;;
20449;SDS011;10384;51.940;8.432;2023-08-20T07:06:00;8.53;;;4.60;;
20449;SDS011;10384;51.940;8.432;2023-08-20T07:08:26;9.70;;;4.00;;
20449;SDS011;10384;51.940;8.432;2023-08-20T07:10:51;9.83;;;4.40;;
20449;SDS011;10384;51.940;8.432;2023-08-20T07:13:17;11.30;;;4.40;;
20449;SDS011;10384;51.940;8.432;2023-08-20T07:15:42;9.67;;;4.93;;
20449;SDS011;10384;51.940;8.432;2023-08-20T07:18:08;10.37;;;4.50;;
20449;SDS011;10384;51.940;8.432;2023-08-20T07:20:35;8.57;;;4.63;;
20449;SDS011;10384;51.940;8.432;2023-08-20T07:23:00;11.13;;;5.00;;
20449;SDS011;10384;51.940;8.432;2023-08-20T07:25:26;7.67;;;4.80;;
20449;SDS011;10384;51.940;8.432;2023-08-20T07:27:52;10.10;;;5.57;;
20449;SDS011;10384;51.940;8.432;2023-08-20T07:30:17;9.17;;;5.30;;
20449;SDS011;10384;51.940;8.432;2023-08-20T07:32:43;11.27;;;5.23;;
20449;SDS011;10384;51.940;8.432;2023-08-20T07:35:08;9.73;;;5.60;;
20449;SDS011;10384;51.940;8.432;2023-08-20T07:37:35;7.43;;;4.60;;
20449;SDS011;10384;51.940;8.432;2023-08-20T07:40:00;12.53;;;5.67;;
20449;SDS011;10384;51.940;8.432;2023-08-20T07:42:26;11.00;;;5.60;;
20449;SDS011;10384;51.940;8.432;2023-08-20T07:44:52;12.60;;;5.70;;
20449;SDS011;10384;51.940;8.432;2023-08-20T07:47:18;11.37;;;5.93;;
20449;SDS011;10384;51.940;8.432;2023-08-20T07:49:43;12.83;;;6.90;;
20449;SDS011;10384;51.940;8.432;2023-08-20T07:52:09;14.97;;;6.80;;
20449;SDS011;10384;51.940;8.432;2023-08-20T07:54:34;11.43;;;6.10;;
20449;SDS011;10384;51.940;8.432;2023-08-20T07:57:00;12.40;;;6.30;;
20449;SDS011;10384;51.940;8.432;2023-08-20T07:59:25;14.10;;;6.73;;
20449;SDS011;10384;51.940;8.432;2023-08-20T08:01:51;15.40;;;6.97;;
20449;SDS011;10384;51.940;8.432;2023-08-20T08:04:17;16.00;;;7.13;;
20449;SDS011;10384;51.940;8.432;2023-08-20T08:06:42;12.57;;;6.50;;
20449;SDS011;10384;51.940;8.432;2023-08-20T08:09:21;13.03;;;6.60;;
20449;SDS011;10384;51.940;8.432;2023-08-20T08:11:51;15.47;;;8.10;;
20449;SDS011;10384;51.940;8.432;2023-08-20T08:14:17;14.37;;;7.70;;
20449;SDS011;10384;51.940;8.432;2023-08-20T08:16:42;15.13;;;8.33;;
20449;SDS011;10384;51.940;8.432;2023-08-20T08:19:09;15.23;;;8.40;;
20449;SDS011;10384;51.940;8.432;2023-08-20T08:21:35;15.63;;;8.40;;
20449;SDS011;10384;51.940;8.432;2023-08-20T08:24:01;14.87;;;7.87;;
20449;SDS011;10384;51.940;8.432;2023-08-20T08:26:27;16.07;;;7.67;;
20449;SDS011;10384;51.940;8.432;2023-08-20T08:28:53;18.37;;;8.90;;
20449;SDS011;10384;51.940;8.432;2023-08-20T08:31:19;15.63;;;8.33;;
20449;SDS011;10384;51.940;8.432;2023-08-20T08:33:44;18.13;;;10.07;;
20449;SDS011;10384;51.940;8.432;2023-08-20T08:36:10;17.70;;;9.60;;
20449;SDS011;10384;51.940;8.432;2023-08-20T08:38:36;14.97;;;8.23;;
20449;SDS011;10384;51.940;8.432;2023-08-20T08:41:03;15.27;;;8.37;;
20449;SDS011;10384;51.940;8.432;2023-08-20T08:43:32;16.50;;;8.40;;
20449;SDS011;10384;51.940;8.432;2023-08-20T08:45:58;17.10;;;7.67;;
20449;SDS011;10384;51.940;8.432;2023-08-20T08:48:26;20.00;;;9.43;;
20449;SDS011;10384;51.940;8.432;2023-08-20T08:50:51;15.60;;;8.57;;
20449;SDS011;10384;51.940;8.432;2023-08-20T08:53:17;21.00;;;9.90;;
20449;SDS011;10384;51.940;8.432;2023-08-20T08:55:43;15.33;;;9.63;;
20449;SDS011;10384;51.940;8.432;2023-08-20T08:58:09;17.80;;;9.30;;
20449;SDS011;10384;51.940;8.432;2023-08-20T09:00:34;17.17;;;9.80;;
20449;SDS011;10384;51.940;8.432;2023-08-20T09:03:06;17.90;;;9.20;;
20449;SDS011;10384;51.940;8.432;2023-08-20T09:05:32;18.27;;;9.60;;
20449;SDS011;10384;51.940;8.432;2023-08-20T09:08:09;13.73;;;7.97;;
20449;SDS011;10384;51.940;8.432;2023-08-20T09:10:43;20.87;;;10.03;;
20449;SDS011;10384;51.940;8.432;2023-08-20T09:13:09;16.43;;;9.27;;
20449;SDS011;10384;51.940;8.432;2023-08-20T09:15:34;17.03;;;8.37;;
20449;SDS011;10384;51.940;8.432;2023-08-20T09:18:01;16.70;;;7.80;;
20449;SDS011;10384;51.940;8.432;2023-08-20T09:20:35;14.53;;;7.90;;
20449;SDS011;10384;51.940;8.432;2023-08-20T09:23:13;14.07;;;8.20;;
20449;SDS011;10384;51.940;8.432;2023-08-20T09:25:39;16.07;;;7.03;;
20449;SDS011;10384;51.940;8.432;2023-08-20T09:28:04;13.20;;;7.23;;
20449;SDS011;10384;51.940;8.432;2023-08-20T09:30:30;11.73;;;6.70;;
20449;SDS011;10384;51.940;8.432;2023-08-20T09:33:11;13.80;;;8.13;;
20449;SDS011;10384;51.940;8.432;2023-08-20T09:35:42;12.10;;;7.10;;
20449;SDS011;10384;51.940;8.432;2023-08-20T09:38:18;12.80;;;6.93;;
20449;SDS011;10384;51.940;8.432;2023-08-20T09:40:45;10.07;;;6.37;;
20449;SDS011;10384;51.940;8.432;2023-08-20T09:43:25;10.47;;;6.50;;
20449;SDS011;10384;51.940;8.432;2023-08-20T09:45:55;12.60;;;7.40;;
20449;SDS011;10384;51.940;8.432;2023-08-20T09:48:24;13.73;;;7.77;;
20449;SDS011;10384;51.940;8.432;2023-08-20T09:50:53;13.30;;;7.63;;
20449;SDS011;10384;51.940;8.432;2023-08-20T09:53:28;12.00;;;7.37;;
20449;SDS011;10384;51.940;8.432;2023-08-20T09:56:01;10.47;;;6.77;;
20449;SDS011;10384;51.940;8.432;2023-08-20T09:58:34;13.17;;;6.23;;
20449;SDS011;10384;51.940;8.432;2023-08-20T10:01:02;10.47;;;5.27;;
20449;SDS011;10384;51.940;8.432;2023-08-20T10:03:28;8.33;;;5.27;;
20449;SDS011;10384;51.940;8.432;2023-08-20T10:05:54;11.13;;;6.20;;
20449;SDS011;10384;51.940;8.432;2023-08-20T10:08:23;9.23;;;5.60;;
20449;SDS011;10384;51.940;8.432;2023-08-20T10:10:49;8.23;;;5.13;;
20449;SDS011;10384;51.940;8.432;2023-08-20T10:13:15;7.67;;;5.20;;
20449;SDS011;10384;51.940;8.432;2023-08-20T10:15:42;10.83;;;5.97;;
20449;SDS011;10384;51.940;8.432;2023-08-20T10:18:07;8.30;;;5.30;;
20449;SDS011;10384;51.940;8.432;2023-08-20T10:20:34;8.57;;;5.50;;
20449;SDS011;10384;51.940;8.432;2023-08-20T10:23:00;7.37;;;4.60;;
20449;SDS011;10384;51.940;8.432;2023-08-20T10:25:27;7.67;;;5.10;;
20449;SDS011;10384;51.940;8.432;2023-08-20T10:27:54;6.97;;;4.93;;
20449;SDS011;10384;51.940;8.432;2023-08-20T10:30:35;8.57;;;5.27;;
20449;SDS011;10384;51.940;8.432;2023-08-20T10:33:01;7.10;;;4.70;;
20449;SDS011;10384;51.940;8.432;2023-08-20T10:35:31;7.07;;;5.07;;
20449;SDS011;10384;51.940;8.432;2023-08-20T10:38:12;8.10;;;5.30;;
20449;SDS011;10384;51.940;8.432;2023-08-20T10:46:04;9.00;;;5.47;;
20449;SDS011;10384;51.940;8.432;2023-08-20T10:48:34;9.63;;;5.07;;
20449;SDS011;10384;51.940;8.432;2023-08-20T10:51:06;9.77;;;5.00;;
20449;SDS011;10384;51.940;8.432;2023-08-20T10:53:36;9.33;;;5.30;;
20449;SDS011;10384;51.940;8.432;2023-08-20T10:56:08;9.13;;;5.57;;
20449;SDS011;10384;51.940;8.432;2023-08-20T10:58:38;9.33;;;5.87;;
20449;SDS011;10384;51.940;8.432;2023-08-20T11:03:45;8.30;;;5.57;;
20449;SDS011;10384;51.940;8.432;2023-08-20T11:06:11;7.83;;;5.47;;
20449;SDS011;10384;51.940;8.432;2023-08-20T11:08:37;10.50;;;5.30;;
20449;SDS011;10384;51.940;8.432;2023-08-20T11:11:04;8.77;;;5.83;;
20449;SDS011;10384;51.940;8.432;2023-08-20T11:13:33;10.13;;;6.03;;
20449;SDS011;10384;51.940;8.432;2023-08-20T11:15:59;9.10;;;5.47;;
20449;SDS011;10384;51.940;8.432;2023-08-20T11:18:25;10.37;;;5.10;;
20449;SDS011;10384;51.940;8.432;2023-08-20T11:20:51;7.33;;;5.03;;
20449;SDS011;10384;51.940;8.432;2023-08-20T11:23:18;7.27;;;5.20;;
20449;SDS011;10384;51.940;8.432;2023-08-20T11:25:44;7.70;;;5.17;;
20449;SDS011;10384;51.940;8.432;2023-08-20T11:28:10;6.57;;;4.67;;
20449;SDS011;10384;51.940;8.432;2023-08-20T11:30:35;8.57;;;5.10;;
20449;SDS011;10384;51.940;8.432;2023-08-20T11:33:01;8.50;;;6.00;;
20449;SDS011;10384;51.940;8.432;2023-08-20T11:35:27;7.70;;;5.37;;
20449;SDS011;10384;51.940;8.432;2023-08-20T11:37:53;8.10;;;5.10;;
20449;SDS011;10384;51.940;8.432;2023-08-20T11:40:21;7.63;;;4.77;;
20449;SDS011;10384;51.940;8.432;2023-08-20T11:42:48;7.67;;;5.33;;
20449;SDS011;10384;51.940;8.432;2023-08-20T11:45:13;6.73;;;4.83;;
20449;SDS011;10384;51.940;8.432;2023-08-20T11:47:39;8.03;;;5.33;;
20449;SDS011;10384;51.940;8.432;2023-08-20T11:50:06;7.43;;;5.33;;
20449;SDS011;10384;51.940;8.432;2023-08-20T11:52:32;8.60;;;5.47;;
20449;SDS011;10384;51.940;8.432;2023-08-20T11:54:59;7.57;;;4.90;;
20449;SDS011;10384;51.940;8.432;2023-08-20T11:57:25;7.23;;;5.00;;
20449;SDS011;10384;51.940;8.432;2023-08-20T11:59:51;7.40;;;5.33;;
20449;SDS011;10384;51.940;8.432;2023-08-20T12:02:24;7.30;;;4.87;;
20449;SDS011;10384;51.940;8.432;2023-08-20T12:04:50;8.10;;;5.20;;
20449;SDS011;10384;51.940;8.432;2023-08-20T12:07:16;7.93;;;5.40;;
20449;SDS011;10384;51.940;8.432;2023-08-20T12:09:41;8.03;;;5.07;;
20449;SDS011;10384;51.940;8.432;2023-08-20T12:12:07;7.13;;;4.97;;
20449;SDS011;10384;51.940;8.432;2023-08-20T12:14:34;7.57;;;5.30;;
20449;SDS011;10384;51.940;8.432;2023-08-20T12:17:00;6.93;;;4.73;;
20449;SDS011;10384;51.940;8.432;2023-08-20T12:19:26;7.73;;;5.00;;
20449;SDS011;10384;51.940;8.432;2023-08-20T12:21:51;7.00;;;4.80;;
20449;SDS011;10384;51.940;8.432;2023-08-20T12:24:17;7.93;;;4.43;;
20449;SDS011;10384;51.940;8.432;2023-08-20T12:26:46;8.10;;;5.27;;
20449;SDS011;10384;51.940;8.432;2023-08-20T12:29:12;6.10;;;4.50;;
20449;SDS011;10384;51.940;8.432;2023-08-20T12:31:37;7.87;;;5.23;;
20449;SDS011;10384;51.940;8.432;2023-08-20T12:34:03;7.17;;;4.70;;
20449;SDS011;10384;51.940;8.432;2023-08-20T12:36:29;7.23;;;5.30;;
20449;SDS011;10384;51.940;8.432;2023-08-20T12:38:55;6.93;;;4.57;;
20449;SDS011;10384;51.940;8.432;2023-08-20T12:41:21;7.57;;;4.80;;
20449;SDS011;10384;51.940;8.432;2023-08-20T12:43:47;6.00;;;4.37;;
20449;SDS011;10384;51.940;8.432;2023-08-20T12:46:12;6.67;;;4.80;;
20449;SDS011;10384;51.940;8.432;2023-08-20T12:48:38;5.80;;;4.43;;
20449;SDS011;10384;51.940;8.432;2023-08-20T12:51:04;6.10;;;4.13;;
20449;SDS011;10384;51.940;8.432;2023-08-20T12:53:31;6.00;;;4.03;;
20449;SDS011;10384;51.940;8.432;2023-08-20T12:55:57;4.97;;;3.70;;
20449;SDS011;10384;51.940;8.432;2023-08-20T12:58:23;6.27;;;4.13;;
20449;SDS011;10384;51.940;8.432;2023-08-20T13:00:49;5.50;;;3.90;;
20449;SDS011;10384;51.940;8.432;2023-08-20T13:03:16;6.57;;;4.83;;
20449;SDS011;10384;51.940;8.432;2023-08-20T13:05:42;8.07;;;4.43;;
20449;SDS011;10384;51.940;8.432;2023-08-20T13:08:08;7.87;;;4.17;;
20449;SDS011;10384;51.940;8.432;2023-08-20T13:10:36;5.43;;;4.30;;
20449;SDS011;10384;51.940;8.432;2023-08-20T13:13:02;5.77;;;4.43;;
20449;SDS011;10384;51.940;8.432;2023-08-20T13:15:28;6.63;;;4.20;;
20449;SDS011;10384;51.940;8.432;2023-08-20T13:17:54;7.60;;;4.90;;
20449;SDS011;10384;51.940;8.432;2023-08-20T13:20:20;6.43;;;4.37;;
20449;SDS011;10384;51.940;8.432;2023-08-20T13:22:48;6.27;;;4.50;;
20449;SDS011;10384;51.940;8.432;2023-08-20T13:25:14;7.40;;;4.03;;
20449;SDS011;10384;51.940;8.432;2023-08-20T13:27:40;8.70;;;4.83;;
20449;SDS011;10384;51.940;8.432;2023-08-20T13:30:06;7.10;;;4.87;;
20449;SDS011;10384;51.940;8.432;2023-08-20T13:32:33;7.40;;;4.50;;
20449;SDS011;10384;51.940;8.432;2023-08-20T13:34:59;6.80;;;4.40;;
20449;SDS011;10384;51.940;8.432;2023-08-20T13:37:25;6.73;;;4.63;;
20449;SDS011;10384;51.940;8.432;2023-08-20T13:39:52;9.07;;;4.93;;
20449;SDS011;10384;51.940;8.432;2023-08-20T13:42:18;6.50;;;4.63;;
20449;SDS011;10384;51.940;8.432;2023-08-20T13:44:43;7.63;;;4.87;;
20449;SDS011;10384;51.940;8.432;2023-08-20T13:47:09;6.33;;;4.47;;
20449;SDS011;10384;51.940;8.432;2023-08-20T13:49:34;6.23;;;4.40;;
20449;SDS011;10384;51.940;8.432;2023-08-20T13:52:00;6.73;;;5.13;;
20449;SDS011;10384;51.940;8.432;2023-08-20T13:54:25;6.57;;;4.50;;
20449;SDS011;10384;51.940;8.432;2023-08-20T13:56:51;6.83;;;4.77;;
20449;SDS011;10384;51.940;8.432;2023-08-20T13:59:17;7.03;;;5.03;;
20449;SDS011;10384;51.940;8.432;2023-08-20T14:01:42;5.77;;;4.47;;
20449;SDS011;10384;51.940;8.432;2023-08-20T14:04:08;7.03;;;4.93;;
20449;SDS011;10384;51.940;8.432;2023-08-20T14:06:33;7.17;;;4.90;;
20449;SDS011;10384;51.940;8.432;2023-08-20T14:08:59;6.50;;;5.13;;
20449;SDS011;10384;51.940;8.432;2023-08-20T14:11:24;6.97;;;5.07;;
20449;SDS011;10384;51.940;8.432;2023-08-20T14:13:50;8.63;;;4.97;;
20449;SDS011;10384;51.940;8.432;2023-08-20T14:16:16;6.17;;;4.67;;
20449;SDS011;10384;51.940;8.432;2023-08-20T14:18:42;7.93;;;5.17;;
20449;SDS011;10384;51.940;8.432;2023-08-20T14:21:08;8.83;;;5.27;;
20449;SDS011;10384;51.940;8.432;2023-08-20T14:23:33;6.87;;;5.33;;
20449;SDS011;10384;51.940;8.432;2023-08-20T14:26:00;6.47;;;4.70;;
20449;SDS011;10384;51.940;8.432;2023-08-20T14:28:25;7.57;;;4.87;;
20449;SDS011;10384;51.940;8.432;2023-08-20T14:30:51;6.90;;;5.17;;
20449;SDS011;10384;51.940;8.432;2023-08-20T14:33:19;7.77;;;5.33;;
20449;SDS011;10384;51.940;8.432;2023-08-20T14:35:45;8.23;;;5.10;;
20449;SDS011;10384;51.940;8.432;2023-08-20T14:38:12;7.17;;;4.90;;
20449;SDS011;10384;51.940;8.432;2023-08-20T14:40:39;8.37;;;5.23;;
20449;SDS011;10384;51.940;8.432;2023-08-20T14:43:05;7.27;;;5.23;;
20449;SDS011;10384;51.940;8.432;2023-08-20T14:45:32;7.63;;;5.23;;
20449;SDS011;10384;51.940;8.432;2023-08-20T14:47:57;8.77;;;5.37;;
20449;SDS011;10384;51.940;8.432;2023-08-20T14:50:23;6.90;;;5.07;;